createdAt,value
2018-10-02T00:03:17.719Z,4.90
2018-10-02T00:07:21.743Z,4.23
2018-10-02T00:11:31.152Z,4.47
2018-10-02T00:15:35.570Z,8.13
2018-10-02T00:19:39.643Z,5.40
2018-10-02T00:23:43.730Z,6.90
2018-10-02T00:27:47.950Z,4.90
2018-10-02T00:31:52.050Z,4.30
2018-10-02T00:35:56.325Z,4.57
2018-10-02T00:40:00.453Z,3.53
2018-10-02T00:44:04.613Z,3.67
2018-10-02T00:48:08.871Z,3.57
2018-10-02T00:52:12.935Z,2.03
2018-10-02T00:56:17.046Z,3.57
2018-10-02T01:00:21.212Z,4.07
2018-10-02T01:04:25.288Z,3.17
2018-10-02T01:08:29.776Z,4.57
2018-10-02T01:12:33.962Z,3.20
2018-10-02T01:16:38.495Z,3.37
2018-10-02T01:20:42.570Z,4.27
2018-10-02T01:24:46.953Z,3.00
2018-10-02T01:28:51.062Z,5.83
2018-10-02T01:32:55.138Z,3.63
2018-10-02T01:36:59.236Z,2.97
2018-10-02T01:41:03.935Z,4.07
2018-10-02T01:45:08.233Z,4.97
2018-10-02T01:49:12.415Z,4.90
2018-10-02T01:53:16.559Z,6.03
2018-10-02T01:57:21.028Z,7.33
2018-10-02T02:01:25.303Z,6.87
2018-10-02T02:05:29.522Z,4.63
2018-10-02T02:09:33.847Z,6.40
2018-10-02T02:13:37.898Z,5.83
2018-10-02T02:17:41.998Z,6.10
2018-10-02T02:21:46.254Z,6.70
2018-10-02T02:25:50.302Z,6.53
2018-10-02T02:29:54.350Z,7.47
2018-10-02T02:33:58.502Z,8.37
2018-10-02T02:38:02.674Z,7.80
2018-10-02T02:42:06.736Z,8.43
2018-10-02T02:46:10.767Z,6.77
2018-10-02T02:50:20.154Z,6.30
2018-10-02T02:54:24.194Z,5.40
2018-10-02T02:58:28.668Z,8.07
2018-10-02T03:02:32.756Z,9.23
2018-10-02T03:06:36.946Z,7.83
2018-10-02T03:10:40.979Z,7.83
2018-10-02T03:14:45.089Z,8.57
2018-10-02T03:18:49.291Z,9.23
2018-10-02T03:22:53.335Z,9.60
2018-10-02T03:26:57.403Z,7.90
2018-10-02T03:31:01.520Z,8.37
2018-10-02T03:35:05.855Z,7.43
2018-10-02T03:39:10.155Z,11.10
2018-10-02T03:43:14.318Z,12.00
2018-10-02T03:47:18.384Z,8.87
2018-10-02T03:51:22.419Z,9.10
2018-10-02T03:55:26.479Z,9.50
2018-10-02T03:59:30.762Z,8.87
2018-10-02T04:03:35.236Z,10.57
2018-10-02T04:07:39.211Z,8.87
2018-10-02T04:11:43.265Z,10.23
2018-10-02T04:15:47.375Z,8.53
2018-10-02T04:19:51.555Z,8.10
2018-10-02T04:23:55.686Z,12.47
2018-10-02T04:27:59.838Z,9.50
2018-10-02T04:32:03.892Z,9.13
2018-10-02T04:36:08.016Z,10.77
2018-10-02T04:40:12.069Z,6.87
2018-10-02T04:44:16.182Z,9.83
2018-10-02T04:48:20.466Z,8.30
2018-10-02T04:52:24.470Z,9.87
2018-10-02T04:56:28.557Z,8.63
2018-10-02T05:00:32.735Z,7.70
2018-10-02T05:04:37.459Z,11.63
2018-10-02T05:08:41.583Z,8.53
2018-10-02T05:12:45.731Z,9.77
2018-10-02T05:16:49.797Z,9.90
2018-10-02T05:20:53.852Z,11.00
2018-10-02T05:24:59.359Z,10.67
2018-10-02T05:29:03.619Z,8.77
2018-10-02T05:33:08.011Z,12.53
2018-10-02T05:37:12.164Z,11.80
2018-10-02T05:41:16.246Z,7.27
2018-10-02T05:45:20.336Z,8.80
2018-10-02T05:49:24.446Z,10.73
2018-10-02T05:53:29.045Z,15.07
2018-10-02T05:57:34.173Z,11.13
2018-10-02T06:01:38.451Z,11.63
2018-10-02T06:05:42.511Z,9.13
2018-10-02T06:09:46.820Z,11.60
2018-10-02T06:13:50.997Z,13.30
2018-10-02T06:17:55.276Z,10.70
2018-10-02T06:21:59.341Z,7.63
2018-10-02T06:26:03.715Z,6.70
2018-10-02T06:30:07.909Z,11.13
2018-10-02T06:34:12.012Z,8.33
2018-10-02T06:38:16.302Z,11.03
2018-10-02T06:42:20.249Z,10.80
2018-10-02T06:46:24.307Z,11.63
2018-10-02T06:50:29.243Z,13.60
2018-10-02T06:54:33.465Z,9.33
2018-10-02T06:58:37.619Z,11.47
2018-10-02T07:02:41.750Z,8.37
2018-10-02T07:06:46.183Z,10.83
2018-10-02T07:10:50.236Z,10.70
2018-10-02T07:14:54.371Z,15.67
2018-10-02T07:18:58.555Z,14.67
2018-10-02T07:23:02.754Z,12.67
2018-10-02T07:27:07.108Z,11.63
2018-10-02T07:31:11.215Z,16.60
2018-10-02T07:35:15.348Z,12.87
2018-10-02T07:39:19.489Z,12.03
2018-10-02T07:43:23.659Z,10.63
2018-10-02T07:47:27.859Z,11.30
2018-10-02T07:51:31.999Z,9.93
2018-10-02T07:55:36.381Z,13.10
2018-10-02T07:59:40.754Z,9.67
2018-10-02T08:03:44.759Z,13.67
2018-10-02T08:07:49.017Z,11.73
2018-10-02T08:11:53.295Z,14.83
2018-10-02T08:15:57.662Z,12.67
2018-10-02T08:20:02.039Z,11.17
2018-10-02T08:24:06.373Z,13.47
2018-10-02T08:28:10.885Z,13.03
2018-10-02T08:32:14.960Z,18.27
2018-10-02T08:36:19.138Z,18.00
2018-10-02T08:40:23.395Z,17.17
2018-10-02T08:44:27.784Z,17.07
2018-10-02T08:48:32.014Z,21.03
2018-10-02T08:52:36.784Z,19.77
2018-10-02T08:56:40.922Z,17.10
2018-10-02T09:00:45.022Z,20.43
2018-10-02T09:04:49.111Z,16.40
2018-10-02T09:08:53.167Z,17.23
2018-10-02T09:12:57.341Z,19.73
2018-10-02T09:17:02.601Z,16.47
2018-10-02T09:21:07.131Z,16.43
2018-10-02T09:25:11.460Z,14.07
2018-10-02T09:29:15.745Z,17.70
2018-10-02T09:33:25.352Z,16.97
2018-10-02T09:37:34.911Z,14.63
2018-10-02T09:41:44.568Z,14.73
2018-10-02T09:45:48.706Z,14.43
2018-10-02T09:49:52.881Z,17.63
2018-10-02T09:53:57.102Z,15.83
2018-10-02T09:58:01.636Z,13.90
2018-10-02T10:02:14.676Z,14.53
2018-10-02T10:06:18.729Z,16.90
2018-10-02T10:10:22.914Z,14.83
2018-10-02T10:14:26.991Z,15.00
2018-10-02T10:18:31.230Z,17.07
2018-10-02T10:22:36.004Z,12.70
2018-10-02T10:26:40.113Z,15.20
2018-10-02T10:30:44.088Z,16.00
2018-10-02T10:34:48.390Z,11.73
2018-10-02T10:38:52.438Z,15.13
2018-10-02T10:42:56.611Z,16.07
2018-10-02T10:47:01.148Z,11.07
2018-10-02T10:51:07.307Z,10.60
2018-10-02T10:55:21.423Z,15.10
2018-10-02T10:59:25.599Z,12.33
2018-10-02T11:03:30.148Z,10.83
2018-10-02T11:07:34.373Z,10.03
2018-10-02T11:11:39.556Z,10.03
2018-10-02T11:15:43.737Z,7.83
2018-10-02T11:19:48.142Z,9.20
2018-10-02T11:23:52.264Z,6.83
2018-10-02T11:27:56.466Z,7.23
2018-10-02T11:32:00.622Z,8.70
2018-10-02T11:36:04.710Z,8.93
2018-10-02T11:40:09.078Z,9.23
2018-10-02T11:44:13.624Z,7.07
2018-10-02T11:48:17.812Z,5.07
2018-10-02T11:52:21.984Z,7.50
2018-10-02T11:56:26.096Z,8.53
2018-10-02T12:00:30.699Z,6.60
2018-10-02T12:04:34.875Z,8.63
2018-10-02T12:08:39.334Z,7.37
2018-10-02T12:12:44.364Z,7.47
2018-10-02T12:16:48.666Z,11.13
2018-10-02T12:20:52.838Z,6.50
2018-10-02T12:24:57.103Z,8.13
2018-10-02T12:29:01.255Z,9.27
2018-10-02T12:33:05.435Z,7.50
2018-10-02T12:37:09.663Z,9.93
2018-10-02T12:41:13.773Z,7.73
2018-10-02T12:45:17.824Z,6.43
2018-10-02T12:49:22.054Z,6.83
2018-10-02T12:53:26.367Z,7.43
2018-10-02T12:57:30.458Z,8.77
2018-10-02T13:01:34.533Z,9.63
2018-10-02T13:05:38.592Z,6.30
2018-10-02T13:09:42.779Z,9.33
2018-10-02T13:13:46.945Z,7.97
2018-10-02T13:17:51.536Z,9.17
2018-10-02T13:21:56.286Z,4.53
2018-10-02T13:26:00.399Z,8.47
2018-10-02T13:30:04.541Z,8.43
2018-10-02T13:34:40.149Z,5.70
2018-10-02T13:38:44.531Z,7.23
2018-10-02T13:42:48.961Z,8.63
2018-10-02T13:46:53.593Z,9.13
2018-10-02T13:50:57.884Z,7.17
2018-10-02T13:55:01.957Z,4.93
2018-10-02T13:59:06.151Z,9.87
2018-10-02T14:03:10.321Z,7.67
2018-10-02T14:07:14.367Z,4.53
2018-10-02T14:11:18.389Z,5.70
2018-10-02T14:15:23.771Z,6.50
2018-10-02T14:19:27.946Z,8.93
2018-10-02T14:23:32.189Z,7.70
2018-10-02T14:27:36.223Z,5.73
2018-10-02T14:31:40.277Z,10.13
2018-10-02T14:35:45.201Z,7.80
2018-10-02T14:39:49.552Z,5.83
2018-10-02T14:43:54.104Z,8.13
2018-10-02T14:47:58.152Z,6.53
2018-10-02T14:52:02.303Z,11.10
2018-10-02T14:56:06.515Z,8.53
2018-10-02T15:00:10.775Z,7.80
2018-10-02T15:04:14.903Z,6.13
2018-10-02T15:08:19.091Z,8.93
2018-10-02T15:12:23.439Z,9.17
2018-10-02T15:16:27.628Z,8.07
2018-10-02T15:20:31.667Z,9.53
2018-10-02T15:24:35.719Z,8.40
2018-10-02T15:28:40.067Z,6.47
2018-10-02T15:32:44.122Z,7.50
2018-10-02T15:38:51.290Z,10.53
2018-10-02T15:42:55.447Z,7.27
2018-10-02T15:46:59.631Z,9.00
2018-10-02T15:51:03.857Z,10.00
2018-10-02T15:55:08.145Z,10.60
2018-10-02T15:59:12.180Z,11.30
2018-10-02T16:03:16.325Z,7.90
2018-10-02T16:07:20.578Z,11.70
2018-10-02T16:11:24.853Z,10.63
2018-10-02T16:15:28.983Z,12.70
2018-10-02T16:19:33.062Z,16.60
2018-10-02T16:23:37.262Z,8.87
2018-10-02T16:27:41.368Z,12.17
2018-10-02T16:31:45.382Z,8.13
2018-10-02T16:35:49.491Z,12.23
2018-10-02T16:39:53.617Z,11.83
2018-10-02T16:43:57.788Z,14.33
2018-10-02T16:48:01.842Z,11.20
2018-10-02T16:52:05.919Z,12.00
2018-10-02T16:56:10.066Z,11.37
2018-10-02T17:00:14.207Z,8.37
2018-10-02T17:04:18.272Z,10.33
2018-10-02T17:08:23.219Z,10.93
2018-10-02T18:55:51.431Z,16.93
2018-10-02T18:59:55.684Z,14.63
2018-10-02T19:03:59.840Z,11.73
2018-10-02T19:08:04.107Z,17.63
2018-10-02T19:12:12.879Z,11.30
2018-10-02T19:16:22.317Z,19.27
2018-10-02T19:20:31.887Z,12.70
2018-10-02T19:24:36.096Z,11.27
2018-10-02T19:28:40.181Z,15.30
2018-10-02T19:32:44.499Z,13.53
2018-10-02T19:36:48.680Z,14.13
2018-10-02T19:40:52.876Z,18.80
2018-10-02T19:44:56.973Z,16.23
2018-10-02T19:49:01.076Z,15.93
2018-10-02T19:53:05.194Z,14.97
2018-10-02T19:57:11.573Z,16.10
2018-10-02T20:01:15.993Z,15.03
2018-10-02T20:05:20.139Z,13.70
2018-10-02T20:09:24.106Z,14.77
2018-10-02T20:13:28.735Z,12.90
2018-10-02T20:17:32.643Z,17.00
2018-10-02T20:21:36.966Z,11.17
2018-10-02T20:25:41.199Z,11.47
2018-10-02T20:29:45.419Z,15.90
2018-10-02T20:33:49.528Z,16.20
2018-10-02T20:37:53.703Z,14.53
2018-10-02T20:41:57.867Z,13.93
2018-10-02T20:46:02.056Z,15.40
2018-10-02T20:50:06.257Z,14.33
2018-10-02T20:54:10.391Z,12.67
2018-10-02T20:58:14.573Z,16.80
2018-10-02T21:02:19.695Z,16.90
2018-10-02T21:06:23.963Z,16.57
2018-10-02T21:10:28.246Z,18.47
2018-10-02T21:14:32.508Z,16.00
2018-10-02T21:18:36.682Z,13.70
2018-10-02T21:22:43.602Z,16.23
2018-10-02T21:26:48.967Z,17.07
2018-10-02T21:30:53.296Z,16.77
2018-10-02T21:34:57.448Z,16.43
2018-10-02T21:39:01.547Z,12.60
2018-10-02T21:43:05.891Z,18.87
2018-10-02T21:47:09.996Z,18.77
2018-10-02T21:51:15.270Z,18.10
2018-10-02T21:55:19.427Z,15.53
2018-10-02T21:59:24.553Z,17.37
2018-10-02T22:03:28.735Z,16.83
2018-10-02T22:07:33.332Z,18.77
2018-10-02T22:11:37.488Z,19.57
2018-10-02T22:16:00.921Z,19.73
2018-10-02T22:20:05.092Z,17.47
2018-10-02T22:24:09.233Z,19.00
2018-10-02T22:28:13.337Z,17.87
2018-10-02T22:32:18.406Z,18.80
2018-10-02T22:36:22.730Z,16.37
2018-10-02T22:40:26.828Z,22.90
2018-10-02T22:44:30.956Z,19.37
2018-10-02T22:48:35.200Z,14.07
2018-10-02T22:52:39.310Z,18.77
2018-10-02T22:56:44.473Z,17.77
2018-10-02T23:00:48.663Z,21.63
2018-10-02T23:04:53.016Z,20.80
2018-10-02T23:08:57.201Z,17.50
2018-10-02T23:13:01.340Z,20.50
2018-10-02T23:17:05.497Z,19.97
2018-10-02T23:21:09.579Z,14.47
2018-10-02T23:25:15.052Z,22.20
2018-10-02T23:29:19.326Z,23.60
2018-10-02T23:33:23.419Z,21.63
2018-10-02T23:37:27.571Z,18.70
2018-10-02T23:41:31.708Z,18.80
2018-10-02T23:45:35.791Z,20.23
2018-10-02T23:49:39.929Z,16.60
2018-10-02T23:53:44.596Z,14.10
2018-10-02T23:57:48.845Z,19.97
